sensor_id;sensor_type;location;lat;lon;timestamp;pressure;altitude;pressure_sealevel;temperature;humidity
35291;BME280;21411;50.024;19.220;2023-03-01T00:01:11;100218.34;;;-3.71;100.00
35291;BME280;21411;50.024;19.220;2023-03-01T00:03:39;100218.13;;;-3.74;100.00
35291;BME280;21411;50.024;19.220;2023-03-01T00:06:06;100215.48;;;-3.78;100.00
35291;BME280;21411;50.024;19.220;2023-03-01T00:08:33;100213.90;;;-3.79;100.00
35291;BME280;21411;50.024;19.220;2023-03-01T00:11:09;100214.06;;;-3.81;100.00
35291;BME280;21411;50.024;19.220;2023-03-01T00:13:36;100215.95;;;-3.83;100.00
35291;BME280;21411;50.024;19.220;2023-03-01T00:16:09;100219.06;;;-3.85;100.00
35291;BME280;21411;50.024;19.220;2023-03-01T00:18:37;100223.04;;;-3.85;100.00
35291;BME280;21411;50.024;19.220;2023-03-01T00:21:04;100220.61;;;-3.85;100.00
35291;BME280;21411;50.024;19.220;2023-03-01T00:23:31;100219.23;;;-3.84;100.00
35291;BME280;21411;50.024;19.220;2023-03-01T00:25:59;100216.29;;;-3.84;100.00
35291;BME280;21411;50.024;19.220;2023-03-01T00:28:26;100215.08;;;-3.84;100.00
35291;BME280;21411;50.024;19.220;2023-03-01T00:30:53;100212.27;;;-3.87;100.00
35291;BME280;21411;50.024;19.220;2023-03-01T00:33:19;100209.61;;;-3.90;100.00
35291;BME280;21411;50.024;19.220;2023-03-01T00:35:46;100207.48;;;-3.96;100.00
35291;BME280;21411;50.024;19.220;2023-03-01T00:38:13;100203.05;;;-4.02;100.00
35291;BME280;21411;50.024;19.220;2023-03-01T00:40:40;100199.31;;;-4.11;100.00
35291;BME280;21411;50.024;19.220;2023-03-01T00:43:08;100197.32;;;-4.19;100.00
35291;BME280;21411;50.024;19.220;2023-03-01T00:45:34;100200.18;;;-4.25;100.00
35291;BME280;21411;50.024;19.220;2023-03-01T00:48:01;100202.74;;;-4.29;100.00
35291;BME280;21411;50.024;19.220;2023-03-01T00:50:28;100202.02;;;-4.30;100.00
35291;BME280;21411;50.024;19.220;2023-03-01T00:52:55;100201.52;;;-4.31;100.00
35291;BME280;21411;50.024;19.220;2023-03-01T00:55:23;100197.69;;;-4.31;100.00
35291;BME280;21411;50.024;19.220;2023-03-01T00:57:50;100200.08;;;-4.33;100.00
35291;BME280;21411;50.024;19.220;2023-03-01T01:00:18;100197.95;;;-4.37;100.00
35291;BME280;21411;50.024;19.220;2023-03-01T01:02:45;100194.08;;;-4.42;100.00
35291;BME280;21411;50.024;19.220;2023-03-01T01:05:12;100191.77;;;-4.45;100.00
35291;BME280;21411;50.024;19.220;2023-03-01T01:07:38;100189.65;;;-4.48;100.00
35291;BME280;21411;50.024;19.220;2023-03-01T01:10:06;100187.02;;;-4.51;100.00
35291;BME280;21411;50.024;19.220;2023-03-01T01:12:32;100191.84;;;-4.54;100.00
35291;BME280;21411;50.024;19.220;2023-03-01T01:14:59;100192.14;;;-4.58;100.00
35291;BME280;21411;50.024;19.220;2023-03-01T01:17:25;100191.23;;;-4.61;100.00
35291;BME280;21411;50.024;19.220;2023-03-01T01:19:52;100188.07;;;-4.64;100.00
35291;BME280;21411;50.024;19.220;2023-03-01T01:22:19;100182.14;;;-4.66;100.00
35291;BME280;21411;50.024;19.220;2023-03-01T01:24:45;100180.20;;;-4.68;100.00
35291;BME280;21411;50.024;19.220;2023-03-01T01:27:12;100178.45;;;-4.71;100.00
35291;BME280;21411;50.024;19.220;2023-03-01T01:29:38;100178.42;;;-4.72;100.00
35291;BME280;21411;50.024;19.220;2023-03-01T01:32:05;100173.41;;;-4.72;100.00
35291;BME280;21411;50.024;19.220;2023-03-01T01:34:32;100173.23;;;-4.72;100.00
35291;BME280;21411;50.024;19.220;2023-03-01T01:36:59;100173.05;;;-4.72;100.00
35291;BME280;21411;50.024;19.220;2023-03-01T01:39:29;100172.17;;;-4.73;100.00
35291;BME280;21411;50.024;19.220;2023-03-01T01:41:56;100167.64;;;-4.75;100.00
35291;BME280;21411;50.024;19.220;2023-03-01T01:44:25;100168.82;;;-4.77;100.00
35291;BME280;21411;50.024;19.220;2023-03-01T01:52:01;100164.03;;;-4.84;100.00
35291;BME280;21411;50.024;19.220;2023-03-01T01:57:07;100155.14;;;-4.90;100.00
35291;BME280;21411;50.024;19.220;2023-03-01T01:59:37;100153.71;;;-4.92;100.00
35291;BME280;21411;50.024;19.220;2023-03-01T02:02:04;100154.20;;;-4.93;100.00
35291;BME280;21411;50.024;19.220;2023-03-01T02:04:32;100155.22;;;-4.95;100.00
35291;BME280;21411;50.024;19.220;2023-03-01T02:09:36;100153.30;;;-4.96;100.00
35291;BME280;21411;50.024;19.220;2023-03-01T02:12:03;100152.44;;;-4.96;100.00
35291;BME280;21411;50.024;19.220;2023-03-01T02:14:31;100150.52;;;-4.95;100.00
35291;BME280;21411;50.024;19.220;2023-03-01T02:16:57;100152.98;;;-4.94;100.00
35291;BME280;21411;50.024;19.220;2023-03-01T02:22:30;100151.80;;;-4.92;100.00
35291;BME280;21411;50.024;19.220;2023-03-01T02:30:23;100145.02;;;-4.94;100.00
35291;BME280;21411;50.024;19.220;2023-03-01T02:32:54;100141.15;;;-4.98;100.00
35291;BME280;21411;50.024;19.220;2023-03-01T02:35:23;100140.92;;;-5.01;100.00
35291;BME280;21411;50.024;19.220;2023-03-01T02:37:50;100138.77;;;-5.05;100.00
35291;BME280;21411;50.024;19.220;2023-03-01T02:40:18;100140.98;;;-5.08;100.00
35291;BME280;21411;50.024;19.220;2023-03-01T02:42:54;100144.77;;;-5.11;100.00
35291;BME280;21411;50.024;19.220;2023-03-01T02:45:22;100148.55;;;-5.13;100.00
35291;BME280;21411;50.024;19.220;2023-03-01T02:47:49;100146.29;;;-5.13;100.00
35291;BME280;21411;50.024;19.220;2023-03-01T02:50:34;100144.57;;;-5.13;100.00
35291;BME280;21411;50.024;19.220;2023-03-01T02:53:16;100148.36;;;-5.14;100.00
35291;BME280;21411;50.024;19.220;2023-03-01T02:55:47;100154.06;;;-5.14;100.00
35291;BME280;21411;50.024;19.220;2023-03-01T02:58:14;100147.14;;;-5.15;100.00
35291;BME280;21411;50.024;19.220;2023-03-01T03:00:47;100146.30;;;-5.13;100.00
35291;BME280;21411;50.024;19.220;2023-03-01T03:03:17;100142.52;;;-5.11;100.00
35291;BME280;21411;50.024;19.220;2023-03-01T03:05:45;100140.63;;;-5.10;100.00
35291;BME280;21411;50.024;19.220;2023-03-01T03:08:12;100136.64;;;-5.10;100.00
35291;BME280;21411;50.024;19.220;2023-03-01T03:10:40;100136.45;;;-5.11;100.00
35291;BME280;21411;50.024;19.220;2023-03-01T03:13:09;100137.47;;;-5.12;100.00
35291;BME280;21411;50.024;19.220;2023-03-01T03:15:37;100140.03;;;-5.14;100.00
35291;BME280;21411;50.024;19.220;2023-03-01T03:18:10;100139.14;;;-5.17;100.00
35291;BME280;21411;50.024;19.220;2023-03-01T03:20:39;100134.26;;;-5.19;100.00
35291;BME280;21411;50.024;19.220;2023-03-01T03:23:07;100133.05;;;-5.18;100.00
35291;BME280;21411;50.024;19.220;2023-03-01T03:25:34;100137.74;;;-5.17;100.00
35291;BME280;21411;50.024;19.220;2023-03-01T03:28:06;100132.03;;;-5.16;100.00
35291;BME280;21411;50.024;19.220;2023-03-01T03:30:38;100130.50;;;-5.15;100.00
35291;BME280;21411;50.024;19.220;2023-03-01T03:33:05;100132.96;;;-5.13;100.00
35291;BME280;21411;50.024;19.220;2023-03-01T03:35:39;100133.49;;;-5.11;100.00
35291;BME280;21411;50.024;19.220;2023-03-01T03:38:09;100134.55;;;-5.10;100.00
35291;BME280;21411;50.024;19.220;2023-03-01T03:43:32;100136.59;;;-5.14;100.00
35291;BME280;21411;50.024;19.220;2023-03-01T03:45:59;100136.02;;;-5.17;100.00
35291;BME280;21411;50.024;19.220;2023-03-01T03:48:27;100134.57;;;-5.21;100.00
35291;BME280;21411;50.024;19.220;2023-03-01T03:50:55;100131.93;;;-5.23;100.00
35291;BME280;21411;50.024;19.220;2023-03-01T03:53:24;100126.00;;;-5.27;100.00
35291;BME280;21411;50.024;19.220;2023-03-01T03:55:52;100124.04;;;-5.30;100.00
35291;BME280;21411;50.024;19.220;2023-03-01T03:58:21;100119.31;;;-5.33;100.00
35291;BME280;21411;50.024;19.220;2023-03-01T04:00:51;100118.73;;;-5.38;100.00
35291;BME280;21411;50.024;19.220;2023-03-01T04:03:19;100116.81;;;-5.38;100.00
35291;BME280;21411;50.024;19.220;2023-03-01T04:05:46;100114.39;;;-5.39;100.00
35291;BME280;21411;50.024;19.220;2023-03-01T04:08:13;100113.31;;;-5.41;100.00
35291;BME280;21411;50.024;19.220;2023-03-01T04:10:43;100113.62;;;-5.43;100.00
35291;BME280;21411;50.024;19.220;2023-03-01T04:13:11;100116.01;;;-5.46;100.00
35291;BME280;21411;50.024;19.220;2023-03-01T04:15:38;100124.08;;;-5.50;100.00
35291;BME280;21411;50.024;19.220;2023-03-01T04:18:05;100130.78;;;-5.53;100.00
35291;BME280;21411;50.024;19.220;2023-03-01T04:20:34;100132.67;;;-5.54;100.00
35291;BME280;21411;50.024;19.220;2023-03-01T04:23:04;100133.52;;;-5.56;100.00
35291;BME280;21411;50.024;19.220;2023-03-01T04:25:41;100133.83;;;-5.58;100.00
35291;BME280;21411;50.024;19.220;2023-03-01T04:28:08;100137.95;;;-5.59;100.00
35291;BME280;21411;50.024;19.220;2023-03-01T04:30:38;100143.30;;;-5.60;100.00
35291;BME280;21411;50.024;19.220;2023-03-01T04:33:07;100141.75;;;-5.60;100.00
35291;BME280;21411;50.024;19.220;2023-03-01T04:35:36;100141.42;;;-5.58;100.00
35291;BME280;21411;50.024;19.220;2023-03-01T04:38:03;100136.08;;;-5.57;100.00
35291;BME280;21411;50.024;19.220;2023-03-01T04:40:31;100135.73;;;-5.57;100.00
35291;BME280;21411;50.024;19.220;2023-03-01T04:42:57;100141.08;;;-5.59;100.00
35291;BME280;21411;50.024;19.220;2023-03-01T04:45:24;100141.20;;;-5.62;100.00
35291;BME280;21411;50.024;19.220;2023-03-01T04:47:51;100140.11;;;-5.65;100.00
35291;BME280;21411;50.024;19.220;2023-03-01T04:50:20;100138.18;;;-5.66;100.00
35291;BME280;21411;50.024;19.220;2023-03-01T04:52:51;100143.52;;;-5.68;100.00
35291;BME280;21411;50.024;19.220;2023-03-01T04:55:19;100142.59;;;-5.71;100.00
35291;BME280;21411;50.024;19.220;2023-03-01T04:57:45;100135.95;;;-5.75;100.00
35291;BME280;21411;50.024;19.220;2023-03-01T05:00:15;100137.85;;;-5.76;100.00
35291;BME280;21411;50.024;19.220;2023-03-01T05:02:58;100133.80;;;-5.80;100.00
35291;BME280;21411;50.024;19.220;2023-03-01T05:05:31;100131.67;;;-5.83;100.00
35291;BME280;21411;50.024;19.220;2023-03-01T05:08:00;100129.41;;;-5.83;100.00
35291;BME280;21411;50.024;19.220;2023-03-01T05:10:29;100124.55;;;-5.84;100.00
35291;BME280;21411;50.024;19.220;2023-03-01T05:12:56;100121.05;;;-5.85;100.00
35291;BME280;21411;50.024;19.220;2023-03-01T05:15:27;100127.11;;;-5.86;100.00
35291;BME280;21411;50.024;19.220;2023-03-01T05:17:56;100125.91;;;-5.86;100.00
35291;BME280;21411;50.024;19.220;2023-03-01T05:20:28;100122.10;;;-5.85;100.00
35291;BME280;21411;50.024;19.220;2023-03-01T05:22:57;100114.81;;;-5.86;100.00
35291;BME280;21411;50.024;19.220;2023-03-01T05:25:25;100114.27;;;-5.88;100.00
35291;BME280;21411;50.024;19.220;2023-03-01T05:27:52;100119.09;;;-5.89;100.00
35291;BME280;21411;50.024;19.220;2023-03-01T05:30:19;100120.15;;;-5.88;100.00
35291;BME280;21411;50.024;19.220;2023-03-01T05:32:47;100117.42;;;-5.87;100.00
35291;BME280;21411;50.024;19.220;2023-03-01T05:35:16;100120.55;;;-5.85;100.00
35291;BME280;21411;50.024;19.220;2023-03-01T05:37:46;100122.69;;;-5.82;100.00
35291;BME280;21411;50.024;19.220;2023-03-01T05:40:15;100123.77;;;-5.79;100.00
35291;BME280;21411;50.024;19.220;2023-03-01T05:42:43;100124.17;;;-5.76;100.00
35291;BME280;21411;50.024;19.220;2023-03-01T05:45:11;100118.52;;;-5.73;100.00
35291;BME280;21411;50.024;19.220;2023-03-01T05:47:40;100116.98;;;-5.70;100.00
35291;BME280;21411;50.024;19.220;2023-03-01T05:52:40;100116.77;;;-5.64;100.00
35291;BME280;21411;50.024;19.220;2023-03-01T05:55:07;100118.90;;;-5.60;100.00
35291;BME280;21411;50.024;19.220;2023-03-01T05:57:34;100117.43;;;-5.54;100.00
35291;BME280;21411;50.024;19.220;2023-03-01T06:00:01;100124.30;;;-5.46;100.00
35291;BME280;21411;50.024;19.220;2023-03-01T06:02:32;100120.80;;;-5.38;100.00
35291;BME280;21411;50.024;19.220;2023-03-01T06:04:58;100118.70;;;-5.29;100.00
35291;BME280;21411;50.024;19.220;2023-03-01T06:07:25;100123.84;;;-5.20;100.00
35291;BME280;21411;50.024;19.220;2023-03-01T06:09:51;100123.62;;;-5.11;100.00
35291;BME280;21411;50.024;19.220;2023-03-01T06:12:18;100125.30;;;-5.03;100.00
35291;BME280;21411;50.024;19.220;2023-03-01T06:14:45;100126.29;;;-4.94;100.00
35291;BME280;21411;50.024;19.220;2023-03-01T06:17:13;100125.02;;;-4.86;100.00
35291;BME280;21411;50.024;19.220;2023-03-01T06:19:39;100128.58;;;-4.79;100.00
35291;BME280;21411;50.024;19.220;2023-03-01T06:22:06;100123.82;;;-4.72;100.00
35291;BME280;21411;50.024;19.220;2023-03-01T06:24:33;100128.63;;;-4.61;100.00
35291;BME280;21411;50.024;19.220;2023-03-01T06:27:00;100133.44;;;-4.50;100.00
35291;BME280;21411;50.024;19.220;2023-03-01T06:29:27;100132.16;;;-4.42;100.00
35291;BME280;21411;50.024;19.220;2023-03-01T06:31:53;100133.14;;;-4.31;100.00
35291;BME280;21411;50.024;19.220;2023-03-01T06:34:20;100136.40;;;-4.20;100.00
35291;BME280;21411;50.024;19.220;2023-03-01T06:36:48;100132.70;;;-4.09;100.00
35291;BME280;21411;50.024;19.220;2023-03-01T06:39:15;100126.75;;;-3.96;100.00
35291;BME280;21411;50.024;19.220;2023-03-01T06:41:43;100124.27;;;-3.84;100.00
35291;BME280;21411;50.024;19.220;2023-03-01T06:44:10;100120.90;;;-3.72;100.00
35291;BME280;21411;50.024;19.220;2023-03-01T06:46:38;100123.95;;;-3.61;100.00
35291;BME280;21411;50.024;19.220;2023-03-01T06:49:05;100122.30;;;-3.50;100.00
35291;BME280;21411;50.024;19.220;2023-03-01T06:51:36;100122.89;;;-3.40;100.00
35291;BME280;21411;50.024;19.220;2023-03-01T06:54:04;100123.16;;;-3.29;100.00
35291;BME280;21411;50.024;19.220;2023-03-01T06:56:31;100124.45;;;-3.18;100.00
35291;BME280;21411;50.024;19.220;2023-03-01T06:58:58;100124.88;;;-3.07;100.00
35291;BME280;21411;50.024;19.220;2023-03-01T07:01:25;100121.98;;;-2.94;100.00
35291;BME280;21411;50.024;19.220;2023-03-01T07:03:52;100119.46;;;-2.82;100.00
35291;BME280;21411;50.024;19.220;2023-03-01T07:06:18;100121.95;;;-2.70;100.00
35291;BME280;21411;50.024;19.220;2023-03-01T07:08:45;100123.23;;;-2.58;100.00
35291;BME280;21411;50.024;19.220;2023-03-01T07:11:12;100119.95;;;-2.48;100.00
35291;BME280;21411;50.024;19.220;2023-03-01T07:13:39;100120.52;;;-2.38;100.00
35291;BME280;21411;50.024;19.220;2023-03-01T07:16:06;100121.08;;;-2.28;100.00
35291;BME280;21411;50.024;19.220;2023-03-01T07:18:33;100117.63;;;-2.16;100.00
35291;BME280;21411;50.024;19.220;2023-03-01T07:21:04;100113.65;;;-2.05;100.00
35291;BME280;21411;50.024;19.220;2023-03-01T07:23:32;100111.58;;;-1.95;100.00
35291;BME280;21411;50.024;19.220;2023-03-01T07:25:59;100104.98;;;-1.85;100.00
35291;BME280;21411;50.024;19.220;2023-03-01T07:28:26;100105.68;;;-1.74;100.00
35291;BME280;21411;50.024;19.220;2023-03-01T07:30:53;100104.47;;;-1.66;100.00
35291;BME280;21411;50.024;19.220;2023-03-01T07:33:20;100100.98;;;-1.58;100.00
35291;BME280;21411;50.024;19.220;2023-03-01T07:35:47;100096.80;;;-1.50;100.00
35291;BME280;21411;50.024;19.220;2023-03-01T07:38:14;100089.13;;;-1.41;100.00
35291;BME280;21411;50.024;19.220;2023-03-01T07:40:40;100086.32;;;-1.31;100.00
35291;BME280;21411;50.024;19.220;2023-03-01T07:43:07;100084.91;;;-1.22;100.00
35291;BME280;21411;50.024;19.220;2023-03-01T07:45:33;100077.39;;;-1.13;100.00
35291;BME280;21411;50.024;19.220;2023-03-01T07:48:00;100073.89;;;-1.02;100.00
35291;BME280;21411;50.024;19.220;2023-03-01T07:50:27;100071.42;;;-0.93;100.00
35291;BME280;21411;50.024;19.220;2023-03-01T07:52:54;100068.59;;;-0.82;100.00
35291;BME280;21411;50.024;19.220;2023-03-01T07:55:20;100065.76;;;-0.71;100.00
35291;BME280;21411;50.024;19.220;2023-03-01T07:57:47;100060.50;;;-0.62;100.00
35291;BME280;21411;50.024;19.220;2023-03-01T08:00:14;100057.33;;;-0.55;100.00
35291;BME280;21411;50.024;19.220;2023-03-01T08:02:40;100055.19;;;-0.49;100.00
35291;BME280;21411;50.024;19.220;2023-03-01T08:05:09;100056.21;;;-0.44;100.00
35291;BME280;21411;50.024;19.220;2023-03-01T08:07:36;100059.31;;;-0.36;100.00
35291;BME280;21411;50.024;19.220;2023-03-01T08:10:03;100057.69;;;-0.27;100.00
35291;BME280;21411;50.024;19.220;2023-03-01T08:12:30;100060.06;;;-0.16;100.00
35291;BME280;21411;50.024;19.220;2023-03-01T08:14:57;100058.26;;;-0.07;100.00
35291;BME280;21411;50.024;19.220;2023-03-01T08:17:23;100053.50;;;0.00;100.00
35291;BME280;21411;50.024;19.220;2023-03-01T08:19:50;100053.45;;;0.08;100.00
35291;BME280;21411;50.024;19.220;2023-03-01T08:22:17;100052.70;;;0.14;100.00
35291;BME280;21411;50.024;19.220;2023-03-01T08:24:43;100054.21;;;0.21;100.00
35291;BME280;21411;50.024;19.220;2023-03-01T08:27:10;100053.47;;;0.28;100.00
35291;BME280;21411;50.024;19.220;2023-03-01T08:29:38;100055.48;;;0.37;100.00
35291;BME280;21411;50.024;19.220;2023-03-01T08:32:05;100048.95;;;0.44;100.00
35291;BME280;21411;50.024;19.220;2023-03-01T08:34:31;100048.04;;;0.49;100.00
35291;BME280;21411;50.024;19.220;2023-03-01T08:36:58;100050.08;;;0.56;100.00
35291;BME280;21411;50.024;19.220;2023-03-01T08:39:24;100046.33;;;0.63;100.00
35291;BME280;21411;50.024;19.220;2023-03-01T08:41:51;100046.92;;;0.73;100.00
35291;BME280;21411;50.024;19.220;2023-03-01T08:44:18;100044.59;;;0.79;100.00
35291;BME280;21411;50.024;19.220;2023-03-01T08:46:46;100037.86;;;0.87;100.00
35291;BME280;21411;50.024;19.220;2023-03-01T08:49:15;100037.05;;;0.98;100.00
35291;BME280;21411;50.024;19.220;2023-03-01T08:51:43;100040.11;;;1.05;100.00
35291;BME280;21411;50.024;19.220;2023-03-01T08:54:16;100039.33;;;1.13;100.00
35291;BME280;21411;50.024;19.220;2023-03-01T08:56:43;100037.69;;;1.18;100.00
35291;BME280;21411;50.024;19.220;2023-03-01T08:59:13;100031.99;;;1.26;100.00
35291;BME280;21411;50.024;19.220;2023-03-01T09:01:45;100030.15;;;1.34;100.00
35291;BME280;21411;50.024;19.220;2023-03-01T09:04:12;100026.37;;;1.41;100.00
35291;BME280;21411;50.024;19.220;2023-03-01T09:06:39;100028.86;;;1.51;100.00
35291;BME280;21411;50.024;19.220;2023-03-01T09:09:07;100026.69;;;1.57;100.00
35291;BME280;21411;50.024;19.220;2023-03-01T09:11:38;100030.27;;;1.64;100.00
35291;BME280;21411;50.024;19.220;2023-03-01T09:14:05;100026.86;;;1.69;100.00
35291;BME280;21411;50.024;19.220;2023-03-01T09:16:32;100026.59;;;1.76;100.00
35291;BME280;21411;50.024;19.220;2023-03-01T09:19:02;100024.36;;;1.84;100.00
35291;BME280;21411;50.024;19.220;2023-03-01T09:21:29;100024.05;;;1.94;100.00
35291;BME280;21411;50.024;19.220;2023-03-01T09:23:57;100025.84;;;2.02;100.00
35291;BME280;21411;50.024;19.220;2023-03-01T09:26:24;100026.73;;;2.13;100.00
35291;BME280;21411;50.024;19.220;2023-03-01T09:28:53;100019.88;;;2.25;100.00
35291;BME280;21411;50.024;19.220;2023-03-01T09:31:22;100023.33;;;2.38;100.00
35291;BME280;21411;50.024;19.220;2023-03-01T09:33:51;100022.65;;;2.48;100.00
35291;BME280;21411;50.024;19.220;2023-03-01T09:36:22;100023.25;;;2.53;100.00
35291;BME280;21411;50.024;19.220;2023-03-01T09:38:49;100023.89;;;2.56;100.00
35291;BME280;21411;50.024;19.220;2023-03-01T09:46:50;100028.45;;;2.75;100.00
35291;BME280;21411;50.024;19.220;2023-03-01T09:49:23;100027.96;;;2.83;100.00
35291;BME280;21411;50.024;19.220;2023-03-01T09:52:00;100024.80;;;2.92;100.00
35291;BME280;21411;50.024;19.220;2023-03-01T09:54:31;100027.16;;;2.98;100.00
35291;BME280;21411;50.024;19.220;2023-03-01T10:00:00;100023.30;;;3.15;100.00
35291;BME280;21411;50.024;19.220;2023-03-01T10:02:39;100017.80;;;3.19;100.00
35291;BME280;21411;50.024;19.220;2023-03-01T10:05:31;100017.88;;;3.23;100.00
35291;BME280;21411;50.024;19.220;2023-03-01T10:08:18;100013.25;;;3.26;100.00
35291;BME280;21411;50.024;19.220;2023-03-01T10:10:47;100012.12;;;3.30;100.00
35291;BME280;21411;50.024;19.220;2023-03-01T10:13:21;100012.63;;;3.39;100.00
35291;BME280;21411;50.024;19.220;2023-03-01T10:15:56;100010.58;;;3.45;100.00
35291;BME280;21411;50.024;19.220;2023-03-01T10:18:29;100004.80;;;3.51;100.00
35291;BME280;21411;50.024;19.220;2023-03-01T10:23:39;99996.73;;;3.67;100.00
35291;BME280;21411;50.024;19.220;2023-03-01T10:28:44;99988.05;;;3.78;100.00
35291;BME280;21411;50.024;19.220;2023-03-01T10:31:15;99986.81;;;3.85;100.00
35291;BME280;21411;50.024;19.220;2023-03-01T10:33:42;99983.80;;;3.94;100.00
35291;BME280;21411;50.024;19.220;2023-03-01T10:36:09;99982.83;;;3.98;100.00
35291;BME280;21411;50.024;19.220;2023-03-01T10:38:52;99982.80;;;3.99;100.00
35291;BME280;21411;50.024;19.220;2023-03-01T10:41:25;99982.74;;;4.01;100.00
35291;BME280;21411;50.024;19.220;2023-03-01T10:43:55;99986.71;;;4.04;100.00
35291;BME280;21411;50.024;19.220;2023-03-01T10:46:35;99983.27;;;4.09;100.00
35291;BME280;21411;50.024;19.220;2023-03-01T10:49:22;99981.45;;;4.18;100.00
35291;BME280;21411;50.024;19.220;2023-03-01T10:51:51;99981.04;;;4.27;100.00
35291;BME280;21411;50.024;19.220;2023-03-01T10:56:52;99975.34;;;4.37;100.00
35291;BME280;21411;50.024;19.220;2023-03-01T10:59:25;99973.88;;;4.39;100.00
35291;BME280;21411;50.024;19.220;2023-03-01T11:02:03;99970.08;;;4.43;100.00
35291;BME280;21411;50.024;19.220;2023-03-01T11:04:30;99962.34;;;4.43;99.91
35291;BME280;21411;50.024;19.220;2023-03-01T11:07:00;99961.00;;;4.40;99.95
35291;BME280;21411;50.024;19.220;2023-03-01T11:09:32;99958.44;;;4.44;100.00
35291;BME280;21411;50.024;19.220;2023-03-01T11:12:11;99957.46;;;4.54;100.00
35291;BME280;21411;50.024;19.220;2023-03-01T11:14:47;99951.69;;;4.66;100.00
35291;BME280;21411;50.024;19.220;2023-03-01T11:17:25;99945.48;;;4.74;100.00
35291;BME280;21411;50.024;19.220;2023-03-01T11:22:34;99938.73;;;4.95;99.88
35291;BME280;21411;50.024;19.220;2023-03-01T11:25:02;99941.09;;;5.11;100.00
35291;BME280;21411;50.024;19.220;2023-03-01T11:27:32;99931.44;;;5.21;99.81
35291;BME280;21411;50.024;19.220;2023-03-01T11:30:05;99928.98;;;5.33;99.79
35291;BME280;21411;50.024;19.220;2023-03-01T11:32:49;99926.16;;;5.45;99.24
35291;BME280;21411;50.024;19.220;2023-03-01T11:35:24;99925.52;;;5.54;98.94
35291;BME280;21411;50.024;19.220;2023-03-01T11:40:40;99922.44;;;5.72;99.02
35291;BME280;21411;50.024;19.220;2023-03-01T11:43:19;99919.05;;;5.79;98.66
35291;BME280;21411;50.024;19.220;2023-03-01T11:48:42;99914.27;;;5.75;96.56
35291;BME280;21411;50.024;19.220;2023-03-01T11:51:29;99912.00;;;5.74;95.90
35291;BME280;21411;50.024;19.220;2023-03-01T11:54:13;99909.30;;;5.64;94.21
35291;BME280;21411;50.024;19.220;2023-03-01T11:56:54;99906.55;;;5.57;94.28
35291;BME280;21411;50.024;19.220;2023-03-01T11:59:38;99909.09;;;5.55;94.11
35291;BME280;21411;50.024;19.220;2023-03-01T12:02:39;99906.39;;;5.56;94.15
35291;BME280;21411;50.024;19.220;2023-03-01T12:08:20;99900.97;;;5.66;94.89
35291;BME280;21411;50.024;19.220;2023-03-01T12:22:29;99887.84;;;5.96;92.52
35291;BME280;21411;50.024;19.220;2023-03-01T12:25:23;99885.20;;;6.02;91.42
35291;BME280;21411;50.024;19.220;2023-03-01T12:28:17;99876.70;;;6.07;91.44
35291;BME280;21411;50.024;19.220;2023-03-01T12:44:40;99846.57;;;6.36;91.57
35291;BME280;21411;50.024;19.220;2023-03-01T12:49:52;99834.75;;;6.45;91.25
35291;BME280;21411;50.024;19.220;2023-03-01T12:52:56;99834.59;;;6.45;90.47
35291;BME280;21411;50.024;19.220;2023-03-01T12:55:31;99837.09;;;6.45;90.41
35291;BME280;21411;50.024;19.220;2023-03-01T13:00:44;99832.55;;;6.48;90.53
35291;BME280;21411;50.024;19.220;2023-03-01T13:03:22;99833.62;;;6.53;90.72
35291;BME280;21411;50.024;19.220;2023-03-01T13:11:42;99831.23;;;6.45;87.18
35291;BME280;21411;50.024;19.220;2023-03-01T13:16:52;99834.77;;;6.45;88.13
35291;BME280;21411;50.024;19.220;2023-03-01T13:21:52;99825.77;;;6.45;87.58
35291;BME280;21411;50.024;19.220;2023-03-01T13:29:56;99817.45;;;6.46;86.74
35291;BME280;21411;50.024;19.220;2023-03-01T13:32:36;99814.55;;;6.43;86.83
35291;BME280;21411;50.024;19.220;2023-03-01T13:37:45;99813.80;;;6.40;85.87
35291;BME280;21411;50.024;19.220;2023-03-01T13:42:50;99803.77;;;6.38;86.04
35291;BME280;21411;50.024;19.220;2023-03-01T13:45:21;99798.23;;;6.41;86.33
35291;BME280;21411;50.024;19.220;2023-03-01T13:47:53;99801.10;;;6.44;85.67
35291;BME280;21411;50.024;19.220;2023-03-01T13:50:24;99800.63;;;6.43;85.15
35291;BME280;21411;50.024;19.220;2023-03-01T13:53:03;99798.67;;;6.44;85.55
35291;BME280;21411;50.024;19.220;2023-03-01T13:55:55;99796.45;;;6.46;85.95
35291;BME280;21411;50.024;19.220;2023-03-01T13:58:26;99793.49;;;6.49;86.33
35291;BME280;21411;50.024;19.220;2023-03-01T14:01:02;99793.48;;;6.49;85.84
35291;BME280;21411;50.024;19.220;2023-03-01T14:03:30;99796.73;;;6.47;85.35
35291;BME280;21411;50.024;19.220;2023-03-01T14:06:09;99794.52;;;6.46;84.89
35291;BME280;21411;50.024;19.220;2023-03-01T14:08:38;99792.75;;;6.46;85.13
35291;BME280;21411;50.024;19.220;2023-03-01T14:19:19;99780.55;;;6.41;83.67
35291;BME280;21411;50.024;19.220;2023-03-01T14:21:47;99775.32;;;6.40;83.76
35291;BME280;21411;50.024;19.220;2023-03-01T14:24:20;99771.05;;;6.40;83.70
35291;BME280;21411;50.024;19.220;2023-03-01T14:26:49;99767.02;;;6.40;83.42
35291;BME280;21411;50.024;19.220;2023-03-01T14:29:36;99766.91;;;6.38;83.00
35291;BME280;21411;50.024;19.220;2023-03-01T14:32:22;99761.70;;;6.35;82.57
35291;BME280;21411;50.024;19.220;2023-03-01T14:34:50;99756.65;;;6.34;83.31
35291;BME280;21411;50.024;19.220;2023-03-01T14:37:22;99759.27;;;6.35;83.89
35291;BME280;21411;50.024;19.220;2023-03-01T14:39:50;99758.59;;;6.34;83.59
35291;BME280;21411;50.024;19.220;2023-03-01T14:42:18;99759.16;;;6.33;84.13
35291;BME280;21411;50.024;19.220;2023-03-01T14:44:48;99762.70;;;6.33;84.56